Time;durP1;ratioP1;P1;durP2;ratioP2;P2;SDS_P1;SDS_P2;PMS_P1;PMS_P2;Temp;Humidity;BMP_temperature;BMP_pressure;BME280_temperature;BME280_humidity;BME280_pressure;Samples;Min_cycle;Max_cycle;Signal;HPM_P1;HPM_P2
2021/10/11 00:00:35;;;;;;;119.30;57.75;;;11.10;99.90;;;8.75;100.00;101474.13;4990501;28;20096;-87
2021/10/11 00:03:02;;;;;;;111.55;56.03;;;11.10;99.90;;;8.74;100.00;101472.44;4990568;28;20084;-87
2021/10/11 00:05:29;;;;;;;111.68;54.17;;;11.10;99.90;;;8.82;100.00;101466.28;4990236;28;20812;-87
2021/10/11 00:07:58;;;;;;;107.63;54.05;;;11.10;99.90;;;8.87;100.00;101474.78;4989925;28;20125;-87
2021/10/11 00:10:26;;;;;;;119.82;55.05;;;11.00;99.90;;;8.82;100.00;101480.69;4990306;28;20129;-87
2021/10/11 00:12:55;;;;;;;131.60;56.10;;;11.10;99.90;;;8.81;100.00;101487.09;4990131;28;20046;-87
2021/10/11 00:15:27;;;;;;;91.70;48.22;;;11.10;99.90;;;8.87;100.00;101491.09;4989757;28;20139;-87
2021/10/11 00:17:56;;;;;;;93.05;48.03;;;11.10;99.90;;;8.98;100.00;101490.91;4990036;28;20074;-87
2021/10/11 00:20:24;;;;;;;89.97;47.60;;;11.00;99.90;;;8.96;100.00;101491.03;4990102;28;20038;-87
2021/10/11 00:22:52;;;;;;;91.70;48.20;;;11.00;99.90;;;9.00;100.00;101500.63;4989810;28;20521;-87
2021/10/11 00:25:19;;;;;;;94.95;50.17;;;11.00;99.90;;;9.03;100.00;101499.44;4989783;28;20129;-87
2021/10/11 00:27:46;;;;;;;93.88;48.78;;;11.10;99.90;;;9.12;100.00;101495.84;4990104;28;20287;-86
2021/10/11 00:30:14;;;;;;;115.25;56.75;;;11.10;99.90;;;9.14;100.00;101499.25;4989834;28;20069;-87
2021/10/11 00:32:43;;;;;;;97.68;50.38;;;11.10;99.90;;;9.20;100.00;101492.38;4988322;28;20042;-87
2021/10/11 00:35:11;;;;;;;107.82;54.25;;;11.10;99.90;;;9.28;100.00;101488.88;4972149;28;20426;-87
2021/10/11 00:37:38;;;;;;;111.47;54.28;;;11.10;99.90;;;9.32;100.00;101482.97;4989047;28;20050;-87
2021/10/11 00:40:08;;;;;;;98.05;52.22;;;11.10;99.90;;;9.36;100.00;101481.66;4989891;28;20105;-86
2021/10/11 00:42:36;;;;;;;107.30;53.08;;;11.20;99.90;;;9.39;100.00;101481.38;4989664;28;20073;-88
2021/10/11 00:45:04;;;;;;;103.60;54.20;;;11.20;99.90;;;9.43;100.00;101481.94;4989565;28;20050;-86
2021/10/11 00:47:31;;;;;;;95.88;51.75;;;11.20;99.90;;;9.44;100.00;101477.34;4989353;28;20154;-87
2021/10/11 00:50:00;;;;;;;100.60;52.80;;;11.20;99.90;;;9.45;100.00;101485.34;4989534;28;20046;-87
2021/10/11 00:52:28;;;;;;;95.20;51.60;;;11.30;99.90;;;9.44;100.00;101477.34;4989500;28;20510;-87
2021/10/11 00:54:55;;;;;;;106.35;53.88;;;11.30;99.90;;;9.49;100.00;101485.91;4989535;28;20161;-87
2021/10/11 00:57:22;;;;;;;101.32;54.42;;;11.30;99.90;;;9.48;100.00;101485.06;4989303;28;20121;-87
2021/10/11 00:59:50;;;;;;;110.32;55.53;;;11.30;99.90;;;9.46;100.00;101480.75;4989423;28;20062;-86
2021/10/11 01:02:17;;;;;;;104.20;53.80;;;11.40;99.90;;;9.52;100.00;101481.00;4987853;28;20141;-87
2021/10/11 01:04:44;;;;;;;111.57;56.67;;;11.40;99.90;;;9.53;100.00;101482.69;4988593;28;20050;-87
2021/10/11 01:07:13;;;;;;;112.82;56.20;;;11.50;99.90;;;9.56;100.00;101482.41;4979705;28;20050;-87
2021/10/11 01:09:40;;;;;;;116.95;58.78;;;11.50;99.90;;;9.59;100.00;101481.22;4952091;28;20073;-87
2021/10/11 01:12:08;;;;;;;114.80;57.47;;;11.50;99.90;;;9.65;100.00;101477.88;4969880;28;20051;-87
2021/10/11 01:14:35;;;;;;;113.15;58.40;;;11.50;99.90;;;9.70;100.00;101478.28;4969964;28;20057;-87
2021/10/11 01:17:02;;;;;;;119.63;58.20;;;11.60;99.90;;;9.71;100.00;101485.44;4969717;28;20046;-87
2021/10/11 01:19:30;;;;;;;103.70;54.90;;;11.50;99.90;;;9.76;100.00;101482.25;4969446;28;20142;-86
2021/10/11 01:21:59;;;;;;;128.35;60.92;;;11.60;99.90;;;9.80;100.00;101491.78;4952095;28;20534;-87
2021/10/11 01:24:26;;;;;;;106.78;55.33;;;11.60;99.90;;;9.82;100.00;101481.63;4969796;28;20109;-87
2021/10/11 01:26:53;;;;;;;113.95;58.00;;;11.70;99.90;;;9.86;100.00;101487.59;4969714;28;20132;-87
2021/10/11 01:29:21;;;;;;;115.30;56.47;;;11.70;99.90;;;9.92;100.00;101487.00;4969283;28;20043;-87
2021/10/11 01:31:49;;;;;;;127.90;59.88;;;11.70;99.90;;;9.98;100.00;101478.22;4969609;28;20050;-87
2021/10/11 01:34:17;;;;;;;108.88;56.65;;;11.80;99.90;;;10.03;100.00;101478.56;4969442;28;20392;-87
2021/10/11 01:36:44;;;;;;;111.07;56.13;;;11.80;99.90;;;10.09;100.00;101487.97;4969648;28;20133;-87
2021/10/11 01:39:13;;;;;;;104.88;55.72;;;11.80;99.90;;;10.12;100.00;101480.34;4969236;28;20129;-87
2021/10/11 01:41:40;;;;;;;135.63;62.72;;;11.90;99.90;;;10.17;100.00;101469.00;4969524;28;20480;-87
2021/10/11 01:44:08;;;;;;;104.25;56.03;;;11.90;99.90;;;10.23;100.00;101472.97;4969480;28;20114;-87
2021/10/11 01:46:36;;;;;;;119.38;58.92;;;11.90;99.90;;;10.25;100.00;101468.22;4969599;28;20137;-87
2021/10/11 01:49:04;;;;;;;108.82;55.58;;;11.90;99.90;;;10.23;100.00;101465.66;4969176;28;20097;-87
2021/10/11 01:51:31;;;;;;;124.13;58.55;;;12.00;99.90;;;10.28;100.00;101466.03;4964425;28;20144;-87
2021/10/11 01:53:59;;;;;;;105.65;56.08;;;12.00;99.90;;;10.31;100.00;101467.59;4988696;28;20066;-88
2021/10/11 01:56:27;;;;;;;144.65;63.22;;;12.10;99.90;;;10.31;100.00;101471.16;4988874;28;20046;-87
2021/10/11 01:58:56;;;;;;;113.93;56.03;;;12.10;99.90;;;10.30;100.00;101468.56;4988471;28;20046;-87
2021/10/11 02:01:24;;;;;;;136.77;62.28;;;12.10;99.90;;;10.33;100.00;101457.41;4971231;28;20154;-87
2021/10/11 02:03:52;;;;;;;118.25;58.38;;;12.10;99.90;;;10.35;100.00;101460.81;4988635;28;20392;-87
2021/10/11 02:06:19;;;;;;;123.20;59.22;;;12.20;99.90;;;10.36;100.00;101459.81;4987330;28;20222;-87
2021/10/11 02:08:46;;;;;;;135.63;63.13;;;12.20;99.90;;;10.36;100.00;101462.56;4988148;28;20514;-87
2021/10/11 02:11:14;;;;;;;119.40;59.90;;;12.20;99.90;;;10.36;100.00;101459.81;4988538;28;20506;-87
2021/10/11 02:13:42;;;;;;;133.25;62.28;;;12.20;99.90;;;10.39;100.00;101455.91;4988693;28;20081;-87
2021/10/11 02:16:10;;;;;;;118.47;57.78;;;12.30;99.90;;;10.39;100.00;101451.31;4990207;28;20050;-87
2021/10/11 02:18:37;;;;;;;113.68;56.97;;;12.30;99.90;;;10.38;100.00;101455.06;4991928;28;20057;-87
2021/10/11 02:21:04;;;;;;;125.25;60.80;;;12.30;99.90;;;10.42;100.00;101451.00;4974906;28;20039;-88
2021/10/11 02:23:32;;;;;;;130.07;60.85;;;12.40;99.90;;;10.41;100.00;101446.56;4992259;28;20050;-87
2021/10/11 02:25:59;;;;;;;144.20;62.90;;;12.30;99.90;;;10.44;100.00;101443.53;4992361;28;20134;-87
2021/10/11 02:28:26;;;;;;;127.20;60.47;;;12.40;99.90;;;10.45;100.00;101444.38;4992118;28;20134;-87
2021/10/11 02:30:58;;;;;;;130.18;59.15;;;12.40;99.90;;;10.45;100.00;101439.81;4992092;28;20058;-87
2021/10/11 02:33:28;;;;;;;172.02;68.40;;;12.40;99.90;;;10.45;100.00;101439.81;4992139;28;20074;-87
2021/10/11 02:35:55;;;;;;;143.63;61.00;;;12.40;99.90;;;10.41;100.00;101443.00;4991892;28;20052;-88
2021/10/11 02:38:23;;;;;;;122.40;58.17;;;12.50;99.90;;;10.42;100.00;101440.13;4991568;28;20125;-87
2021/10/11 02:40:51;;;;;;;120.63;55.05;;;12.50;99.90;;;10.46;100.00;101440.66;4991599;28;20046;-88
2021/10/11 02:43:18;;;;;;;116.20;54.13;;;12.50;99.90;;;10.48;100.00;101435.91;4991994;28;20494;-88
2021/10/11 02:45:45;;;;;;;117.03;55.08;;;12.50;99.90;;;10.51;100.00;101439.16;4992037;28;20600;-87
2021/10/11 02:48:14;;;;;;;98.45;49.83;;;12.50;99.90;;;10.57;100.00;101440.41;4991657;28;20077;-87
2021/10/11 02:50:41;;;;;;;119.28;52.38;;;12.50;99.90;;;10.56;100.00;101449.56;4991658;28;20129;-87
2021/10/11 02:53:08;;;;;;;111.78;49.88;;;12.50;99.90;;;10.56;100.00;101446.84;4991707;28;20129;-87
2021/10/11 02:55:35;;;;;;;92.35;46.65;;;12.60;99.90;;;10.57;100.00;101443.97;4991878;28;20511;-87
2021/10/11 02:58:03;;;;;;;81.15;43.53;;;12.60;99.90;;;10.61;100.00;101454.53;4991337;28;20042;-87
2021/10/11 03:00:30;;;;;;;92.20;44.45;;;12.60;99.90;;;10.66;100.00;101454.88;4991746;28;20679;-87
2021/10/11 03:02:57;;;;;;;83.10;40.50;;;12.60;99.90;;;10.70;100.00;101448.97;4991567;28;20077;-87
2021/10/11 03:05:26;;;;;;;79.75;38.80;;;12.60;99.90;;;10.74;100.00;101452.22;4973975;28;20153;-88
2021/10/11 03:07:53;;;;;;;55.13;31.60;;;12.60;99.90;;;10.77;100.00;101454.59;4975779;28;20129;-87
2021/10/11 03:10:21;;;;;;;58.72;29.80;;;12.60;99.90;;;10.80;100.00;101451.56;4972094;28;20089;-87
2021/10/11 03:12:48;;;;;;;61.67;30.27;;;12.70;99.90;;;10.84;100.00;101455.66;4972029;28;20070;-88
2021/10/11 03:15:15;;;;;;;54.78;28.83;;;12.70;99.90;;;10.84;100.00;101457.53;4954446;28;20143;-87
2021/10/11 03:17:43;;;;;;;53.72;27.33;;;12.70;99.90;;;10.87;100.00;101459.91;4971645;28;20047;-87
2021/10/11 03:20:11;;;;;;;49.58;25.75;;;12.70;99.90;;;10.89;100.00;101458.75;4971951;28;20067;-87
2021/10/11 03:22:40;;;;;;;45.10;25.23;;;12.70;99.90;;;10.91;100.00;101459.44;4970461;28;20051;-87
2021/10/11 03:25:09;;;;;;;51.42;26.73;;;12.70;99.90;;;10.93;100.00;101460.13;4971788;28;20043;-87
2021/10/11 03:27:36;;;;;;;47.65;24.95;;;12.70;99.90;;;10.96;100.00;101465.22;4977620;28;20116;-87
2021/10/11 03:30:04;;;;;;;59.63;27.95;;;12.80;99.90;;;10.94;100.00;101459.09;4973507;28;20137;-87
2021/10/11 03:32:31;;;;;;;48.75;25.38;;;12.80;99.90;;;10.98;100.00;101456.91;4973154;28;20156;-87
2021/10/11 03:34:58;;;;;;;44.55;24.00;;;12.80;99.90;;;11.00;100.00;101448.56;4973741;28;20057;-87
2021/10/11 03:37:26;;;;;;;46.72;25.05;;;12.80;99.90;;;11.02;100.00;101460.16;4973370;28;20074;-87
2021/10/11 03:39:56;;;;;;;54.53;26.27;;;12.80;99.90;;;11.03;100.00;101453.72;4973458;28;20101;-88
2021/10/11 03:42:23;;;;;;;49.53;24.38;;;12.80;99.90;;;11.03;100.00;101451.81;4973378;28;20042;-86
2021/10/11 03:44:50;;;;;;;47.00;24.27;;;12.80;99.90;;;11.05;100.00;101451.66;4990642;28;20058;-87
2021/10/11 03:47:18;;;;;;;44.30;23.65;;;12.80;99.90;;;11.06;100.00;101454.22;4990766;28;20120;-87
2021/10/11 03:49:45;;;;;;;44.15;23.15;;;12.90;99.90;;;11.07;100.00;101455.06;4972840;28;20113;-87
2021/10/11 03:52:14;;;;;;;43.20;22.42;;;12.90;99.90;;;11.09;100.00;101453.03;4990570;28;20066;-87
2021/10/11 03:54:41;;;;;;;48.03;24.58;;;12.90;99.90;;;11.08;100.00;101445.88;4990583;28;20050;-87
2021/10/11 03:57:10;;;;;;;50.45;22.80;;;12.90;99.90;;;11.11;100.00;101445.56;4973170;28;20153;-87
2021/10/11 03:59:37;;;;;;;39.13;20.95;;;12.90;99.90;;;11.10;100.00;101436.53;4972633;28;20078;-87
2021/10/11 04:02:05;;;;;;;40.38;21.92;;;12.90;99.90;;;11.10;100.00;101428.38;4990573;28;20043;-87
2021/10/11 04:04:33;;;;;;;44.00;21.48;;;12.90;99.90;;;11.13;100.00;101428.00;4990646;28;20046;-87
2021/10/11 04:07:05;;;;;;;36.58;19.85;;;12.90;99.90;;;11.12;100.00;101430.94;4990401;28;20047;-87
2021/10/11 04:09:32;;;;;;;;;;;13.00;99.90;;;11.13;100.00;101424.44;4987050;28;20053;-87
2021/10/11 04:12:06;;;;;;;39.40;20.40;;;13.00;99.90;;;11.11;100.00;101419.16;4953626;28;19965;-87
2021/10/11 04:14:35;;;;;;;41.90;21.20;;;13.00;99.90;;;11.11;100.00;101421.03;4970857;28;20066;-87
2021/10/11 04:17:03;;;;;;;42.78;19.95;;;13.00;99.90;;;11.10;100.00;101412.03;4969596;28;20129;-87
2021/10/11 04:19:30;;;;;;;38.35;19.85;;;13.00;99.90;;;11.13;100.00;101416.28;4969325;28;20051;-87
2021/10/11 04:21:57;;;;;;;35.75;19.27;;;13.00;99.90;;;11.11;100.00;101419.16;4953260;28;20043;-88
2021/10/11 04:24:25;;;;;;;42.88;19.95;;;13.00;99.90;;;11.07;100.00;101408.78;4969244;28;20086;-87
2021/10/11 04:26:52;;;;;;;36.40;19.10;;;13.00;99.90;;;11.05;100.00;101424.44;4973313;28;22261;-87
2021/10/11 04:29:19;;;;;;;39.20;19.33;;;13.00;99.90;;;11.00;100.00;101435.81;4989696;28;20049;-87
2021/10/11 04:31:48;;;;;;;40.17;20.17;;;13.00;99.90;;;10.95;100.00;101432.75;4988352;28;20124;-87
2021/10/11 04:34:15;;;;;;;37.50;18.23;;;13.00;99.90;;;10.93;100.00;101430.19;5076177;22;20056;-81
2021/10/11 04:36:43;;;;;;;36.85;19.75;;;13.00;99.90;;;10.89;100.00;101431.53;5073864;28;20044;-81
2021/10/11 04:39:10;;;;;;;42.33;21.42;;;12.90;99.90;;;10.92;100.00;101436.63;5073401;28;20083;-81
2021/10/11 04:41:37;;;;;;;40.88;20.85;;;12.90;99.90;;;10.98;100.00;101450.63;5069291;28;20504;-81
2021/10/11 04:44:05;;;;;;;40.45;19.50;;;12.90;99.90;;;10.99;100.00;101445.00;5077101;28;20623;-81
2021/10/11 04:46:32;;;;;;;46.28;20.95;;;12.90;99.90;;;11.04;100.00;101452.66;5068887;28;20472;-81
2021/10/11 04:49:01;;;;;;;45.03;20.08;;;12.90;99.90;;;11.06;100.00;101442.47;5068320;28;20105;-81
2021/10/11 04:51:28;;;;;;;40.55;20.58;;;12.90;99.90;;;11.07;100.00;101445.03;5068562;28;20133;-81
2021/10/11 04:53:55;;;;;;;40.33;18.98;;;12.90;99.90;;;11.08;100.00;101454.91;5068621;28;20078;-81
2021/10/11 04:56:23;;;;;;;43.83;19.73;;;12.90;99.90;;;11.09;100.00;101458.50;5068269;28;20123;-81
2021/10/11 04:58:50;;;;;;;36.85;17.05;;;13.00;99.90;;;11.08;100.00;101457.66;5066578;28;20512;-81
2021/10/11 05:01:17;;;;;;;36.72;18.08;;;13.00;99.90;;;11.09;100.00;101458.50;5068586;28;20132;-81
2021/10/11 05:03:45;;;;;;;37.42;18.45;;;13.00;99.90;;;11.15;100.00;101452.38;5068537;28;20504;-80
2021/10/11 05:06:13;;;;;;;39.10;18.77;;;13.00;99.90;;;11.14;100.00;101450.69;5070389;28;20132;-82
2021/10/11 05:08:41;;;;;;;33.35;16.73;;;13.00;99.90;;;11.14;100.00;101453.41;5088572;28;20040;-81
2021/10/11 05:11:11;;;;;;;37.38;17.67;;;13.00;99.90;;;11.18;100.00;101456.66;5088766;28;20082;-81
2021/10/11 05:13:38;;;;;;;31.88;16.48;;;13.00;99.90;;;11.17;100.00;101461.22;5088874;28;20052;-81
2021/10/11 05:16:10;;;;;;;48.55;19.05;;;13.00;99.90;;;11.17;100.00;101460.38;5088748;28;20448;-81
2021/10/11 05:18:38;;;;;;;40.75;17.25;;;13.00;99.90;;;11.12;100.00;101453.56;5088400;28;20051;-83
2021/10/11 05:21:06;;;;;;;36.28;18.10;;;13.10;99.90;;;11.14;100.00;101459.69;5088682;28;20093;-82
2021/10/11 05:23:34;;;;;;;35.38;15.93;;;13.10;99.90;;;11.14;100.00;101458.84;5088529;28;20046;-82
2021/10/11 05:26:02;;;;;;;31.70;14.48;;;13.00;99.90;;;11.14;100.00;101467.88;5088552;28;20131;-82
2021/10/11 05:28:29;;;;;;;28.77;14.02;;;13.00;99.90;;;11.11;100.00;101465.47;5072028;28;20056;-83
2021/10/11 05:30:56;;;;;;;33.85;14.73;;;13.10;99.90;;;11.08;100.00;101467.66;5068325;28;20116;-82
2021/10/11 05:33:24;;;;;;;22.65;12.48;;;13.10;99.90;;;11.09;100.00;101470.22;5068246;28;20102;-83
2021/10/11 05:35:53;;;;;;;33.83;13.05;;;13.10;99.90;;;11.09;100.00;101464.78;5068304;28;20485;-82
2021/10/11 05:38:20;;;;;;;27.15;11.27;;;13.10;99.90;;;11.08;100.00;101467.66;5067097;28;20132;-82
2021/10/11 05:40:49;;;;;;;32.33;12.25;;;13.10;99.90;;;11.05;100.00;101468.00;5068137;28;20075;-82
2021/10/11 05:43:16;;;;;;;27.80;10.95;;;13.00;99.90;;;11.08;100.00;101471.25;5066547;28;20453;-82
2021/10/11 05:45:45;;;;;;;25.92;10.93;;;13.00;99.90;;;11.10;100.00;101471.06;5068008;28;20340;-82
2021/10/11 05:48:13;;;;;;;24.83;10.70;;;13.10;99.90;;;11.11;100.00;101472.78;5067942;28;20102;-84
2021/10/11 05:50:40;;;;;;;24.42;9.90;;;13.00;99.90;;;11.09;100.00;101472.94;5068861;28;20503;-82
2021/10/11 05:53:07;;;;;;;22.77;10.07;;;13.00;99.90;;;11.11;100.00;101478.25;5072261;28;20223;-82
2021/10/11 05:55:34;;;;;;;24.63;10.35;;;13.00;99.90;;;11.10;100.00;101479.25;5072083;28;20076;-81
2021/10/11 05:58:03;;;;;;;22.85;9.68;;;13.00;99.90;;;11.11;100.00;101479.09;5069321;28;20033;-83
2021/10/11 06:00:30;;;;;;;21.08;9.45;;;13.00;99.90;;;11.09;100.00;101480.28;5071792;28;20068;-83
2021/10/11 06:02:58;;;;;;;23.00;9.25;;;13.00;99.90;;;11.09;100.00;101480.28;5070623;28;20527;-82
2021/10/11 06:05:25;;;;;;;20.75;9.63;;;13.00;99.90;;;11.10;100.00;101482.84;5083398;28;20116;-82
2021/10/11 06:07:52;;;;;;;17.85;8.85;;;13.00;99.90;;;11.12;100.00;101474.50;5075799;28;20143;-82
2021/10/11 06:10:20;;;;;;;19.30;8.82;;;13.00;99.90;;;11.11;100.00;101470.06;5072631;28;20036;-82
2021/10/11 06:12:47;;;;;;;18.73;9.32;;;13.00;99.90;;;11.08;100.00;101468.53;5069584;28;20075;-82
2021/10/11 06:15:16;;;;;;;25.95;9.68;;;13.00;99.90;;;11.06;100.00;101470.56;5079944;28;20127;-82
2021/10/11 06:17:43;;;;;;;16.73;8.35;;;13.00;99.90;;;11.05;100.00;101463.41;5091865;28;20052;-82
2021/10/11 06:20:11;;;;;;;23.98;8.85;;;13.00;99.90;;;11.05;100.00;101468.00;5091876;28;20035;-82
2021/10/11 06:22:39;;;;;;;20.38;7.95;;;13.00;99.90;;;11.03;100.00;101460.00;5088417;28;20079;-82
2021/10/11 06:25:08;;;;;;;21.52;8.20;;;13.00;99.90;;;10.99;100.00;101471.41;5082674;28;20476;-82
2021/10/11 06:27:37;;;;;;;22.35;8.57;;;13.00;99.90;;;11.01;100.00;101477.53;5082743;28;20393;-82
2021/10/11 06:30:06;;;;;;;27.08;9.35;;;13.00;99.90;;;11.05;100.00;101481.63;5071633;28;20055;-82
2021/10/11 06:32:34;;;;;;;21.50;9.25;;;13.00;99.90;;;11.01;100.00;101477.53;5071212;28;20265;-82
2021/10/11 06:35:01;;;;;;;19.92;8.65;;;13.00;99.90;;;11.00;100.00;101481.25;5084285;28;20048;-82
2021/10/11 06:37:29;;;;;;;20.38;8.20;;;13.00;99.90;;;11.04;100.00;101490.81;5091284;28;20492;-82
2021/10/11 06:39:56;;;;;;;24.70;8.60;;;13.00;99.90;;;11.04;100.00;101490.81;5091565;28;20182;-82
2021/10/11 06:42:23;;;;;;;18.42;9.10;;;13.00;99.90;;;11.05;100.00;101481.63;5091572;28;20047;-82
2021/10/11 06:44:51;;;;;;;20.15;8.63;;;13.00;99.90;;;11.09;100.00;101480.28;5087042;28;20500;-82
2021/10/11 06:47:19;;;;;;;23.65;9.68;;;13.00;99.90;;;11.06;100.00;101480.59;5091502;28;20044;-82
2021/10/11 06:49:47;;;;;;;21.40;9.30;;;13.00;99.90;;;11.09;100.00;101485.72;5091498;28;20129;-82
2021/10/11 06:52:15;;;;;;;21.55;9.55;;;13.00;99.90;;;11.10;100.00;101490.16;5091331;28;20040;-82
2021/10/11 06:54:42;;;;;;;30.73;10.65;;;13.00;99.90;;;11.13;100.00;101496.13;5086871;28;20567;-82
2021/10/11 06:57:10;;;;;;;33.45;10.40;;;13.00;99.90;;;11.15;100.00;101512.31;5090990;28;20048;-82
2021/10/11 06:59:38;;;;;;;35.45;11.30;;;13.00;99.90;;;11.16;100.00;101514.03;5090625;28;20079;-82
2021/10/11 07:02:06;;;;;;;25.33;12.27;;;13.00;99.90;;;11.21;100.00;101517.09;5091176;28;20064;-82
2021/10/11 07:04:33;;;;;;;29.92;13.60;;;13.00;99.90;;;11.29;100.00;101511.69;5086879;28;20063;-82
2021/10/11 07:07:03;;;;;;;29.17;12.27;;;13.00;99.90;;;11.33;100.00;101504.91;5081983;28;20405;-82
2021/10/11 07:09:31;;;;;;;26.20;11.70;;;13.00;99.90;;;11.32;100.00;101514.06;5070291;28;20040;-82
2021/10/11 07:11:58;;;;;;;30.65;11.15;;;13.00;99.90;;;11.40;100.00;101518.69;5070714;28;20458;-82
2021/10/11 07:14:25;;;;;;;25.42;10.65;;;13.10;99.90;;;11.46;100.00;101525.38;5077335;28;20130;-82
2021/10/11 07:16:52;;;;;;;27.75;9.73;;;13.10;99.90;;;11.53;100.00;101520.97;5091075;28;20090;-82
2021/10/11 07:19:20;;;;;;;27.20;9.32;;;13.10;99.90;;;11.62;100.00;101519.97;5090561;28;20454;-82
2021/10/11 07:21:47;;;;;;;27.30;9.25;;;13.10;99.90;;;11.66;100.00;101515.88;5090701;28;20130;-83
2021/10/11 07:24:16;;;;;;;22.08;8.52;;;13.20;99.90;;;11.72;100.00;101512.47;5082475;28;20043;-83
2021/10/11 07:26:46;;;;;;;23.92;8.20;;;13.30;99.90;;;11.80;100.00;101521.69;5089289;28;20048;-82
2021/10/11 07:29:13;;;;;;;21.37;7.57;;;13.30;99.90;;;11.81;100.00;101507.06;5070330;28;20058;-82
2021/10/11 07:31:41;;;;;;;19.67;7.68;;;13.40;99.90;;;11.84;100.00;101517.63;5070209;28;20385;-83
2021/10/11 07:34:08;;;;;;;23.25;7.10;;;13.40;99.90;;;11.78;100.00;101519.13;5075588;28;20040;-82
2021/10/11 07:36:35;;;;;;;21.35;7.18;;;13.40;99.90;;;11.73;100.00;101525.09;5089117;28;20048;-82
2021/10/11 07:39:04;;;;;;;19.50;6.70;;;13.40;99.90;;;11.75;100.00;101527.69;5090214;28;20044;-82
2021/10/11 07:41:33;;;;;;;32.95;8.18;;;13.40;99.90;;;11.74;100.00;101534.13;5090523;28;20093;-85
2021/10/11 07:44:00;;;;;;;21.23;6.72;;;13.50;99.90;;;11.73;100.00;101532.44;5086218;28;20064;-85
2021/10/11 07:46:27;;;;;;;22.95;6.55;;;13.50;99.90;;;11.77;100.00;101532.97;5090314;28;20123;-85
2021/10/11 07:48:55;;;;;;;19.75;7.18;;;13.50;99.90;;;11.76;100.00;101542.16;5083613;28;20044;-85
2021/10/11 07:51:22;;;;;;;30.25;7.35;;;13.50;99.90;;;11.80;100.00;101543.53;5069814;28;20678;-85
2021/10/11 07:53:49;;;;;;;25.25;6.53;;;13.50;99.90;;;11.82;100.00;101547.81;5073710;28;20052;-84
2021/10/11 07:56:17;;;;;;;24.25;6.47;;;13.60;99.90;;;11.87;100.00;101550.03;5061863;28;20047;-85
2021/10/11 07:58:45;;;;;;;22.73;6.88;;;13.60;99.90;;;11.89;100.00;101553.44;5049713;28;20048;-85
2021/10/11 08:01:12;;;;;;;16.35;5.78;;;13.60;99.90;;;11.99;100.00;101553.31;5052552;28;20036;-85
2021/10/11 08:03:40;;;;;;;23.67;6.22;;;13.70;99.90;;;12.03;100.00;101552.81;5053304;28;20072;-84
2021/10/11 08:06:07;;;;;;;17.40;5.53;;;13.70;99.90;;;12.06;100.00;101551.63;5062856;28;20826;-83
2021/10/11 08:08:36;;;;;;;15.40;5.25;;;13.80;99.90;;;12.00;100.00;101553.13;5060400;28;20044;-84
2021/10/11 08:11:03;;;;;;;19.75;5.75;;;13.70;99.90;;;12.02;100.00;101564.75;5053625;28;20128;-84
2021/10/11 08:13:31;;;;;;;18.17;5.15;;;13.70;99.90;;;12.05;100.00;101569.88;5058918;28;20064;-84
2021/10/11 08:16:01;;;;;;;17.23;5.40;;;13.80;99.90;;;12.06;100.00;101571.56;5061630;28;20491;-83
2021/10/11 08:18:28;;;;;;;21.65;5.15;;;13.80;99.90;;;12.15;100.00;101574.28;5058779;28;20489;-84
2021/10/11 08:20:56;;;;;;;31.88;6.50;;;13.80;99.90;;;12.18;100.00;101565.78;5066982;28;20210;-84
2021/10/11 08:23:23;;;;;;;23.42;5.57;;;13.80;99.90;;;12.22;100.00;101564.41;5062813;28;20054;-83
2021/10/11 08:25:51;;;;;;;19.75;4.88;;;13.80;99.90;;;12.22;100.00;101567.13;5072173;28;20123;-83
2021/10/11 08:28:18;;;;;;;17.70;4.75;;;13.90;99.90;;;12.25;100.00;101569.53;5077813;28;20110;-84
2021/10/11 08:30:46;;;;;;;13.30;4.00;;;13.90;99.90;;;12.31;100.00;101569.69;5077664;28;20043;-83
2021/10/11 08:33:14;;;;;;;15.05;4.22;;;13.90;99.90;;;12.42;100.00;101565.78;5085297;28;20075;-84
2021/10/11 08:35:42;;;;;;;21.17;4.88;;;13.90;99.90;;;12.51;100.00;101570.22;5078002;28;20060;-83
2021/10/11 08:38:09;;;;;;;36.45;6.30;;;14.00;99.90;;;12.54;100.00;101570.91;5069801;28;20063;-83
2021/10/11 08:40:36;;;;;;;33.47;5.63;;;14.00;99.90;;;12.45;100.00;101560.00;5089343;28;20086;-83
2021/10/11 08:43:04;;;;;;;24.58;4.85;;;14.00;99.90;;;12.44;100.00;101569.19;5072175;28;20040;-83
2021/10/11 08:45:32;;;;;;;26.35;4.40;;;14.00;99.90;;;12.40;100.00;101567.00;5082461;28;20093;-84
2021/10/11 08:47:59;;;;;;;14.52;3.55;;;14.00;99.90;;;12.30;100.00;101564.44;5089107;28;20085;-83
2021/10/11 08:50:28;;;;;;;18.77;4.57;;;14.00;99.90;;;12.21;100.00;101560.00;5089229;28;20112;-83
2021/10/11 08:52:55;;;;;;;27.38;5.13;;;14.00;99.90;;;12.18;100.00;101563.03;5089190;28;20125;-83
2021/10/11 08:55:22;;;;;;;28.98;4.88;;;14.00;99.90;;;12.12;100.00;101559.97;5080857;28;20135;-83
2021/10/11 08:58:01;;;;;;;18.67;5.20;;;14.00;99.90;;;12.06;100.00;101555.19;5072465;28;20048;-83
2021/10/11 09:00:32;;;;;;;22.25;5.78;;;14.00;99.90;;;12.07;100.00;101567.81;5068551;28;20048;-83
2021/10/11 09:03:02;;;;;;;18.55;5.35;;;14.00;99.90;;;12.10;100.00;101578.38;5055870;28;20143;-83
2021/10/11 09:05:33;;;;;;;32.25;6.10;;;14.00;99.90;;;12.05;100.00;101574.44;5079300;28;20047;-83
2021/10/11 09:08:01;;;;;;;;;;;13.90;99.90;;;12.02;100.00;101572.94;5067183;28;20041;-86
2021/10/11 09:10:30;;;;;;;24.00;6.25;;;13.90;99.90;;;12.11;100.00;101577.38;5075243;28;19924;-83
2021/10/11 09:12:57;;;;;;;22.05;6.05;;;13.90;99.90;;;12.17;100.00;101575.84;5075767;28;20094;-83
2021/10/11 09:15:29;;;;;;;23.58;5.90;;;13.90;99.90;;;12.22;100.00;101576.19;5076553;28;20125;-82
2021/10/11 09:18:00;;;;;;;24.92;5.95;;;13.90;99.90;;;12.31;100.00;101585.22;5079091;28;20507;-83
2021/10/11 09:20:29;;;;;;;18.67;5.68;;;13.90;99.90;;;12.40;100.00;101589.69;5072232;28;20063;-83
2021/10/11 09:23:01;;;;;;;17.92;4.57;;;13.90;99.90;;;12.45;100.00;101592.75;5072872;28;20036;-83
2021/10/11 09:25:35;;;;;;;19.02;4.47;;;13.90;99.90;;;12.55;100.00;101597.19;5080415;28;20050;-84
2021/10/11 09:28:03;;;;;;;23.48;4.10;;;13.90;99.90;;;12.56;100.00;101596.16;5075943;28;20053;-83
2021/10/11 09:30:34;;;;;;;15.07;3.53;;;13.90;99.90;;;12.57;100.00;101595.16;5068774;28;20044;-84
2021/10/11 09:33:13;;;;;;;13.65;3.20;;;14.00;99.90;;;12.58;100.00;101600.41;5066310;28;20139;-84
2021/10/11 09:35:42;;;;;;;13.95;3.45;;;13.90;99.90;;;12.63;100.00;101595.31;5086975;28;20098;-84
2021/10/11 09:38:23;;;;;;;14.25;3.08;;;13.90;99.90;;;12.60;100.00;101590.16;5074955;28;20067;-84
2021/10/11 09:40:53;;;;;;;19.85;3.65;;;13.90;99.90;;;12.64;100.00;101591.56;5068448;28;20174;-85
2021/10/11 09:43:23;;;;;;;18.73;3.33;;;14.00;99.90;;;12.62;100.00;101587.28;5068210;28;20112;-85
2021/10/11 09:45:51;;;;;;;15.30;2.78;;;14.00;99.90;;;12.65;100.00;101595.97;5067045;28;20570;-84
2021/10/11 09:48:20;;;;;;;12.45;3.20;;;14.00;99.90;;;12.67;100.00;101590.34;5067791;28;20067;-85
2021/10/11 09:50:48;;;;;;;9.95;2.70;;;14.00;99.90;;;12.72;100.00;101585.25;5068147;28;20072;-85
2021/10/11 09:53:21;;;;;;;18.08;3.28;;;14.10;99.90;;;12.81;100.00;101570.53;5067580;28;20565;-85
2021/10/11 09:55:49;;;;;;;15.77;2.93;;;14.10;99.90;;;12.89;100.00;101573.25;5070993;28;20771;-85
2021/10/11 09:58:16;;;;;;;14.15;2.40;;;14.20;99.90;;;13.01;100.00;101575.63;5067724;28;20044;-82